TFEPG BISF-BIVM
Flight info
| Callsign | TFEPG |
|---|---|
| Flight time | 0h 26m |
| Altitude | 1500 |
| Route | DCT 635142N0210823W/N0110A035 634926N0205830W 633150N0200705W/N0090A015 632655N0201119W DCT |
| Aircraft | C172/L-SBDGR/C |
Departure
| Time | 2026-05-08 11:52 |
|---|---|
| Airport | Selfoss Airport (BISF) |
Arrival
| Time | 2026-05-08 12:18 |
|---|---|
| Airport | Vestmannaeyjar Airport (BIVM) |
| Time | Latitude | Longitude | Altitude | Speed | Heading |
|---|---|---|---|---|---|
| 2026-05-08 11:40 | 63.92859 | -21.03441 | 19 ft | 0 kts | 129° |
| 2026-05-08 11:48 | 63.92859 | -21.03440 | 19 ft | 0 kts | 128° |
| 2026-05-08 11:48 | 63.92820 | -21.03345 | 19 ft | 10 kts | 149° |
| 2026-05-08 11:48 | 63.92780 | -21.03396 | 19 ft | 1 kts | 244° |
| 2026-05-08 11:49 | 63.92798 | -21.03484 | 19 ft | 8 kts | 311° |
| 2026-05-08 11:49 | 63.92842 | -21.03586 | 19 ft | 9 kts | 309° |
| 2026-05-08 11:49 | 63.92897 | -21.03732 | 19 ft | 12 kts | 311° |
| 2026-05-08 11:49 | 63.92880 | -21.03831 | 19 ft | 10 kts | 215° |
| 2026-05-08 11:50 | 63.92803 | -21.03950 | 19 ft | 16 kts | 215° |
| 2026-05-08 11:50 | 63.92693 | -21.04122 | 17 ft | 20 kts | 217° |
| 2026-05-08 11:50 | 63.92569 | -21.04319 | 15 ft | 22 kts | 215° |
| 2026-05-08 11:50 | 63.92470 | -21.04491 | 13 ft | 10 kts | 199° |
| 2026-05-08 11:51 | 63.92482 | -21.04450 | 13 ft | 0 kts | 34° |
| 2026-05-08 11:51 | 63.92546 | -21.04353 | 14 ft | 26 kts | 34° |
| 2026-05-08 11:52 | 63.92833 | -21.03896 | 72 ft | 62 kts | 32° |
| 2026-05-08 11:52 | 63.93186 | -21.03319 | 285 ft | 63 kts | 29° |
| 2026-05-08 11:52 | 63.93570 | -21.02763 | 484 ft | 66 kts | 26° |
| 2026-05-08 11:52 | 63.93951 | -21.02224 | 704 ft | 63 kts | 31° |
| 2026-05-08 11:53 | 63.94378 | -21.02202 | 877 ft | 69 kts | 331° |
| 2026-05-08 11:53 | 63.94627 | -21.03204 | 1009 ft | 76 kts | 293° |
| 2026-05-08 11:53 | 63.94566 | -21.04528 | 980 ft | 97 kts | 247° |
| 2026-05-08 11:53 | 63.94062 | -21.05636 | 952 ft | 104 kts | 215° |
| 2026-05-08 11:54 | 63.93447 | -21.06469 | 989 ft | 102 kts | 209° |
| 2026-05-08 11:54 | 63.92820 | -21.07271 | 999 ft | 106 kts | 215° |
| 2026-05-08 11:54 | 63.92185 | -21.08187 | 991 ft | 109 kts | 218° |
| 2026-05-08 11:54 | 63.91496 | -21.08996 | 1101 ft | 113 kts | 207° |
| 2026-05-08 11:55 | 63.90776 | -21.09698 | 1254 ft | 114 kts | 205° |
| 2026-05-08 11:55 | 63.90035 | -21.10365 | 1399 ft | 116 kts | 205° |
| 2026-05-08 11:55 | 63.89287 | -21.11151 | 1417 ft | 118 kts | 208° |
| 2026-05-08 11:55 | 63.88534 | -21.11872 | 1420 ft | 119 kts | 207° |
| 2026-05-08 11:56 | 63.87769 | -21.12680 | 1424 ft | 122 kts | 205° |
| 2026-05-08 11:56 | 63.86975 | -21.13354 | 1495 ft | 123 kts | 196° |
| 2026-05-08 11:56 | 63.86101 | -21.13289 | 1510 ft | 128 kts | 156° |
| 2026-05-08 11:56 | 63.85400 | -21.12112 | 1513 ft | 128 kts | 129° |
| 2026-05-08 11:57 | 63.84777 | -21.10707 | 1630 ft | 121 kts | 127° |
| 2026-05-08 11:57 | 63.84256 | -21.09277 | 1834 ft | 114 kts | 126° |
| 2026-05-08 11:57 | 63.83835 | -21.07862 | 2035 ft | 107 kts | 111° |
| 2026-05-08 11:57 | 63.83507 | -21.06346 | 2189 ft | 107 kts | 105° |
| 2026-05-08 11:58 | 63.83239 | -21.04772 | 2344 ft | 107 kts | 104° |
| 2026-05-08 11:58 | 63.83007 | -21.03167 | 2500 ft | 106 kts | 98° |
| 2026-05-08 11:58 | 63.82830 | -21.01568 | 2668 ft | 106 kts | 98° |
| 2026-05-08 11:59 | 63.82323 | -20.98353 | 2929 ft | 110 kts | 106° |
| 2026-05-08 11:59 | 63.82014 | -20.96731 | 3062 ft | 111 kts | 106° |
| 2026-05-08 11:59 | 63.81711 | -20.95156 | 3187 ft | 111 kts | 106° |
| 2026-05-08 11:59 | 63.81393 | -20.93542 | 3316 ft | 111 kts | 108° |
| 2026-05-08 12:00 | 63.80972 | -20.92049 | 3438 ft | 114 kts | 118° |
| 2026-05-08 12:00 | 63.80460 | -20.90642 | 3515 ft | 120 kts | 123° |
| 2026-05-08 12:00 | 63.79929 | -20.89085 | 3523 ft | 126 kts | 121° |
| 2026-05-08 12:00 | 63.79396 | -20.87467 | 3525 ft | 130 kts | 120° |
| 2026-05-08 12:01 | 63.78880 | -20.85802 | 3524 ft | 131 kts | 117° |
| 2026-05-08 12:01 | 63.78371 | -20.84075 | 3523 ft | 132 kts | 119° |
| 2026-05-08 12:01 | 63.77816 | -20.82383 | 3526 ft | 133 kts | 121° |
| 2026-05-08 12:01 | 63.77251 | -20.80696 | 3524 ft | 133 kts | 121° |
| 2026-05-08 12:02 | 63.76672 | -20.79058 | 3524 ft | 133 kts | 122° |
| 2026-05-08 12:02 | 63.76094 | -20.77407 | 3529 ft | 134 kts | 122° |
| 2026-05-08 12:02 | 63.75507 | -20.75739 | 3526 ft | 134 kts | 122° |
| 2026-05-08 12:02 | 63.74939 | -20.74081 | 3532 ft | 133 kts | 120° |
| 2026-05-08 12:03 | 63.74402 | -20.72336 | 3536 ft | 133 kts | 118° |
| 2026-05-08 12:03 | 63.73863 | -20.70629 | 3541 ft | 133 kts | 120° |
| 2026-05-08 12:03 | 63.73307 | -20.68923 | 3542 ft | 133 kts | 121° |
| 2026-05-08 12:03 | 63.72706 | -20.67329 | 3542 ft | 135 kts | 126° |
| 2026-05-08 12:04 | 63.72071 | -20.65726 | 3541 ft | 135 kts | 126° |
| 2026-05-08 12:04 | 63.71471 | -20.64103 | 3544 ft | 133 kts | 123° |
| 2026-05-08 12:04 | 63.70880 | -20.62472 | 3543 ft | 134 kts | 123° |
| 2026-05-08 12:04 | 63.70271 | -20.60884 | 3539 ft | 134 kts | 126° |
| 2026-05-08 12:05 | 63.69641 | -20.59311 | 3533 ft | 133 kts | 126° |
| 2026-05-08 12:05 | 63.69012 | -20.57750 | 3533 ft | 133 kts | 126° |
| 2026-05-08 12:05 | 63.68386 | -20.56197 | 3533 ft | 133 kts | 127° |
| 2026-05-08 12:05 | 63.67760 | -20.54642 | 3529 ft | 134 kts | 126° |
| 2026-05-08 12:06 | 63.67141 | -20.53056 | 3520 ft | 135 kts | 125° |
| 2026-05-08 12:06 | 63.66512 | -20.51491 | 3502 ft | 136 kts | 126° |
| 2026-05-08 12:06 | 63.65863 | -20.49942 | 3502 ft | 136 kts | 128° |
| 2026-05-08 12:06 | 63.65204 | -20.48419 | 3517 ft | 135 kts | 128° |
| 2026-05-08 12:07 | 63.64543 | -20.46907 | 3513 ft | 135 kts | 128° |
| 2026-05-08 12:07 | 63.63888 | -20.45404 | 3503 ft | 135 kts | 128° |
| 2026-05-08 12:07 | 63.63225 | -20.43903 | 3504 ft | 135 kts | 128° |
| 2026-05-08 12:07 | 63.62559 | -20.42395 | 3504 ft | 135 kts | 127° |
| 2026-05-08 12:08 | 63.61920 | -20.40873 | 3510 ft | 134 kts | 126° |
| 2026-05-08 12:08 | 63.61263 | -20.39361 | 3511 ft | 134 kts | 128° |
| 2026-05-08 12:08 | 63.60612 | -20.37856 | 3507 ft | 133 kts | 128° |
| 2026-05-08 12:08 | 63.59942 | -20.36381 | 3504 ft | 134 kts | 129° |
| 2026-05-08 12:09 | 63.59272 | -20.34929 | 3505 ft | 134 kts | 130° |
| 2026-05-08 12:09 | 63.58598 | -20.33462 | 3505 ft | 134 kts | 130° |
| 2026-05-08 12:09 | 63.57904 | -20.32047 | 3506 ft | 135 kts | 132° |
| 2026-05-08 12:09 | 63.57230 | -20.30563 | 3506 ft | 135 kts | 129° |
| 2026-05-08 12:10 | 63.56582 | -20.29036 | 3506 ft | 135 kts | 127° |
| 2026-05-08 12:10 | 63.55998 | -20.27404 | 3507 ft | 134 kts | 121° |
| 2026-05-08 12:10 | 63.55450 | -20.25683 | 3506 ft | 133 kts | 115° |
| 2026-05-08 12:10 | 63.54970 | -20.23917 | 3508 ft | 132 kts | 112° |
| 2026-05-08 12:11 | 63.54530 | -20.22120 | 3507 ft | 131 kts | 111° |
| 2026-05-08 12:11 | 63.54130 | -20.20270 | 3508 ft | 129 kts | 107° |
| 2026-05-08 12:11 | 63.53793 | -20.18444 | 3506 ft | 128 kts | 105° |
| 2026-05-08 12:11 | 63.53505 | -20.16568 | 3508 ft | 126 kts | 98° |
| 2026-05-08 12:12 | 63.53254 | -20.14716 | 3503 ft | 119 kts | 98° |
| 2026-05-08 12:12 | 63.52912 | -20.13146 | 3397 ft | 117 kts | 124° |
| 2026-05-08 12:12 | 63.52189 | -20.12258 | 3160 ft | 123 kts | 167° |
| 2026-05-08 12:12 | 63.51347 | -20.12223 | 2920 ft | 118 kts | 189° |
| 2026-05-08 12:13 | 63.50569 | -20.12684 | 2680 ft | 112 kts | 199° |
| 2026-05-08 12:13 | 63.49841 | -20.13259 | 2440 ft | 110 kts | 207° |
| 2026-05-08 12:13 | 63.49144 | -20.13957 | 2210 ft | 114 kts | 208° |
| 2026-05-08 12:13 | 63.48409 | -20.14687 | 1981 ft | 117 kts | 206° |
| 2026-05-08 12:14 | 63.47643 | -20.15371 | 1754 ft | 120 kts | 205° |
| 2026-05-08 12:14 | 63.46890 | -20.16088 | 1621 ft | 114 kts | 207° |
| 2026-05-08 12:14 | 63.46183 | -20.16785 | 1514 ft | 109 kts | 209° |
| 2026-05-08 12:14 | 63.45546 | -20.17611 | 1510 ft | 103 kts | 224° |
| 2026-05-08 12:15 | 63.45016 | -20.18663 | 1535 ft | 98 kts | 242° |
| 2026-05-08 12:15 | 63.44627 | -20.19852 | 1543 ft | 95 kts | 247° |
| 2026-05-08 12:15 | 63.44274 | -20.21102 | 1420 ft | 96 kts | 251° |
| 2026-05-08 12:15 | 63.43964 | -20.22407 | 1323 ft | 96 kts | 257° |
| 2026-05-08 12:16 | 63.43515 | -20.23557 | 1289 ft | 108 kts | 215° |
| 2026-05-08 12:16 | 63.42804 | -20.24175 | 1191 ft | 112 kts | 201° |
| 2026-05-08 12:16 | 63.42086 | -20.24743 | 1153 ft | 107 kts | 201° |
| 2026-05-08 12:16 | 63.41405 | -20.25300 | 1240 ft | 104 kts | 206° |
| 2026-05-08 12:17 | 63.40702 | -20.25868 | 1158 ft | 106 kts | 210° |
| 2026-05-08 12:17 | 63.40295 | -20.26874 | 1267 ft | 78 kts | 272° |
| 2026-05-08 12:17 | 63.40385 | -20.27999 | 1255 ft | 76 kts | 306° |
| 2026-05-08 12:17 | 63.40670 | -20.28831 | 1248 ft | 67 kts | 338° |
| 2026-05-08 12:18 | 63.41116 | -20.28956 | 885 ft | 69 kts | 12° |
| 2026-05-08 12:18 | 63.41524 | -20.28650 | 576 ft | 57 kts | 10° |
| 2026-05-08 12:18 | 63.41882 | -20.28385 | 357 ft | 51 kts | 14° |
| 2026-05-08 12:18 | 63.42213 | -20.28135 | 269 ft | 46 kts | 18° |
| 2026-05-08 12:19 | 63.42457 | -20.27952 | 276 ft | 22 kts | 19° |
| 2026-05-08 12:19 | 63.42481 | -20.27821 | 282 ft | 13 kts | 107° |
| 2026-05-08 12:19 | 63.42438 | -20.27569 | 301 ft | 17 kts | 110° |
| 2026-05-08 12:19 | 63.42394 | -20.27304 | 318 ft | 18 kts | 109° |
| 2026-05-08 12:20 | 63.42382 | -20.27127 | 327 ft | 4 kts | 47° |
| 2026-05-08 12:20 | 63.42400 | -20.27109 | 328 ft | 6 kts | 17° |
| 2026-05-08 12:20 | 63.42452 | -20.27064 | 328 ft | 8 kts | 30° |
| 2026-05-08 12:20 | 63.42454 | -20.26984 | 330 ft | 7 kts | 113° |
| 2026-05-08 12:21 | 63.42456 | -20.26959 | 331 ft | 4 kts | 296° |
| 2026-05-08 12:21 | 63.42458 | -20.26968 | 330 ft | 0 kts | 289° |